Terminal Aerodrome Forecast
Issued by NWS

Home | Current Version | Previous Version | Text Only | Print | Product List | Glossary Off
Versions: 1 2 3 4 5 6 7 8 9 10 11 12 13 14 15 16 17 18 19

000
FTUS43 KABR 232338
TAFPIR
TAF
KPIR 232338Z 2400/2424 14013G20KT P6SM SCT100
     FM240500 08008KT P6SM -SHRA BKN050
     FM240900 04013G21KT 6SM SHRA OVC030
     FM241500 01016G28KT 6SM SHRA OVC008
     FM241800 36015G23KT 2SM -SHRA OVC008
     FM242100 35012KT P6SM BKN010
     FM242300 34010KT P6SM BKN030=

USA.gov is the U.S. government's official web portal to all federal, state and local government web resources and services.